Time;durP1;ratioP1;P1;durP2;ratioP2;P2;SDS_P1;SDS_P2;PMS_P1;PMS_P2;Temp;Humidity;BMP_temperature;BMP_pressure;BME280_temperature;BME280_humidity;BME280_pressure;Samples;Min_cycle;Max_cycle;Signal;HPM_P1;HPM_P2
2021/08/28 00:00:07;;;;;;;5.63;4.35;;;;;;;;;;4918318;29;20571;-83
2021/08/28 00:02:36;;;;;;;5.22;4.82;;;;;;;;;;4919292;29;20721;-83
2021/08/28 00:05:04;;;;;;;6.05;5.30;;;;;;;;;;4919885;29;20274;-84
2021/08/28 00:07:32;;;;;;;5.20;4.70;;;;;;;;;;4920104;29;20194;-84
2021/08/28 00:10:00;;;;;;;5.43;4.97;;;;;;;;;;4918224;29;20230;-83
2021/08/28 00:12:29;;;;;;;5.60;4.85;;;;;;;;;;4919180;29;20286;-83
2021/08/28 00:14:57;;;;;;;5.05;4.65;;;;;;;;;;4918910;29;20194;-85
2021/08/28 00:17:32;;;;;;;5.45;5.05;;;;;;;;;;4919014;29;20209;-83
2021/08/28 00:20:00;;;;;;;4.70;4.38;;;;;;;;;;4918979;29;20265;-83
2021/08/28 00:22:28;;;;;;;4.85;4.45;;;;;;;;;;4918637;29;20207;-82
2021/08/28 00:24:56;;;;;;;5.13;4.72;;;;;;;;;;4918569;29;20692;-83
2021/08/28 00:27:31;;;;;;;5.47;5.05;;;;;;;;;;4919077;29;20202;-84
2021/08/28 00:29:59;;;;;;;5.20;4.80;;;;;;;;;;4918780;29;20637;-83
2021/08/28 00:32:27;;;;;;;4.78;4.45;;;;;;;;;;4918884;29;20206;-84
2021/08/28 00:35:01;;;;;;;5.68;5.13;;;;;;;;;;4917676;29;20716;-85
2021/08/28 00:37:29;;;;;;;4.50;4.18;;;;;;;;;;4919725;29;20297;-84
2021/08/28 00:39:58;;;;;;;5.35;4.95;;;;;;;;;;4919291;29;20213;-85
2021/08/28 00:42:27;;;;;;;6.40;5.80;;;;;;;;;;4919808;29;20211;-85
2021/08/28 00:44:57;;;;;;;6.20;5.70;;;;;;;;;;4919612;29;20633;-83
2021/08/28 00:47:28;;;;;;;5.13;4.72;;;;;;;;;;4919055;29;20179;-83
2021/08/28 00:49:58;;;;;;;6.25;5.70;;;;;;;;;;4919135;29;20233;-82
2021/08/28 00:52:28;;;;;;;6.25;5.75;;;;;;;;;;4918845;29;20560;-84
2021/08/28 00:54:57;;;;;;;5.13;4.72;;;;;;;;;;4918248;29;20194;-84
2021/08/28 00:57:25;;;;;;;6.00;5.50;;;;;;;;;;4918118;29;20187;-84
2021/08/28 00:59:56;;;;;;;5.50;5.03;;;;;;;;;;4918595;29;20559;-82
2021/08/28 01:02:26;;;;;;;5.72;5.28;;;;;;;;;;4918856;29;20232;-82
2021/08/28 01:05:03;;;;;;;6.20;5.60;;;;;;;;;;4919249;29;20209;-83
2021/08/28 01:07:37;;;;;;;6.18;5.68;;;;;;;;;;4919299;29;20708;-84
2021/08/28 01:10:06;;;;;;;6.60;5.95;;;;;;;;;;4919356;29;20221;-85
2021/08/28 01:12:39;;;;;;;5.50;5.10;;;;;;;;;;4919172;29;20187;-84
2021/08/28 01:15:10;;;;;;;5.45;4.95;;;;;;;;;;4919042;29;20190;-83
2021/08/28 01:17:41;;;;;;;4.78;4.38;;;;;;;;;;4919089;29;20277;-84
2021/08/28 01:20:17;;;;;;;5.55;4.97;;;;;;;;;;4917421;29;20230;-85
2021/08/28 01:22:47;;;;;;;5.53;5.13;;;;;;;;;;4918588;29;20573;-82
2021/08/28 01:25:26;;;;;;;5.28;4.82;;;;;;;;;;4919007;29;20201;-85
2021/08/28 01:28:00;;;;;;;6.57;6.03;;;;;;;;;;4922887;29;20559;-83
2021/08/28 01:30:40;;;;;;;6.10;5.60;;;;;;;;;;4923184;29;20228;-83
2021/08/28 01:33:08;;;;;;;4.57;4.28;;;;;;;;;;4922642;29;20206;-85
2021/08/28 01:35:35;;;;;;;5.88;5.38;;;;;;;;;;4923439;29;20206;-82
2021/08/28 01:38:04;;;;;;;6.28;5.70;;;;;;;;;;4923760;29;20209;-85
2021/08/28 01:40:33;;;;;;;5.80;5.40;;;;;;;;;;4923035;29;20230;-84
2021/08/28 01:43:01;;;;;;;6.50;6.00;;;;;;;;;;4922841;29;20217;-83
2021/08/28 01:45:29;;;;;;;6.82;6.25;;;;;;;;;;4923628;29;20289;-82
2021/08/28 01:48:01;;;;;;;6.45;5.85;;;;;;;;;;4922254;29;20211;-82
2021/08/28 01:50:29;;;;;;;7.30;6.15;;;;;;;;;;4923141;29;20230;-83
2021/08/28 01:52:57;;;;;;;6.43;5.93;;;;;;;;;;4922757;29;20274;-82
2021/08/28 01:55:25;;;;;;;6.40;5.85;;;;;;;;;;4922400;29;20186;-83
2021/08/28 01:57:54;;;;;;;6.45;5.93;;;;;;;;;;4921679;29;20202;-84
2021/08/28 02:00:22;;;;;;;6.03;5.55;;;;;;;;;;4922590;29;20231;-85
2021/08/28 02:02:50;;;;;;;6.50;5.85;;;;;;;;;;4922233;29;20221;-84
2021/08/28 02:05:20;;;;;;;6.35;5.85;;;;;;;;;;4922783;29;20194;-85
2021/08/28 02:07:53;;;;;;;6.43;5.93;;;;;;;;;;4922202;29;20206;-83
2021/08/28 02:10:28;;;;;;;6.72;6.20;;;;;;;;;;4922614;29;20230;-84
2021/08/28 02:13:02;;;;;;;6.18;5.68;;;;;;;;;;4922659;29;20208;-84
2021/08/28 02:15:37;;;;;;;6.05;5.45;;;;;;;;;;4923026;29;20186;-85
2021/08/28 02:18:16;;;;;;;6.35;5.75;;;;;;;;;;4922695;29;20198;-84
2021/08/28 02:20:50;;;;;;;6.93;6.18;;;;;;;;;;4922239;29;20716;-83
2021/08/28 02:23:28;;;;;;;6.32;5.82;;;;;;;;;;4921836;29;20232;-83
2021/08/28 02:26:02;;;;;;;7.13;6.50;;;;;;;;;;4922018;29;20230;-84
2021/08/28 02:28:36;;;;;;;6.30;5.70;;;;;;;;;;4922374;29;20198;-85
2021/08/28 02:31:06;;;;;;;5.22;4.82;;;;;;;;;;4922787;29;20876;-83
2021/08/28 02:33:35;;;;;;;6.85;6.10;;;;;;;;;;4923217;29;20201;-84
2021/08/28 02:36:05;;;;;;;6.70;5.85;;;;;;;;;;4921817;29;20581;-85
2021/08/28 02:38:34;;;;;;;5.32;4.93;;;;;;;;;;4920667;29;20187;-85
2021/08/28 02:41:05;;;;;;;6.22;5.70;;;;;;;;;;4921437;29;20825;-85
2021/08/28 02:43:34;;;;;;;5.97;5.47;;;;;;;;;;4920940;29;20223;-84
2021/08/28 02:46:03;;;;;;;5.53;5.05;;;;;;;;;;4920909;29;20190;-83
2021/08/28 02:48:35;;;;;;;6.40;5.90;;;;;;;;;;4921738;29;20202;-84
2021/08/28 02:51:06;;;;;;;6.07;5.57;;;;;;;;;;4923050;29;20236;-83
2021/08/28 02:53:35;;;;;;;6.85;6.25;;;;;;;;;;4922618;29;20201;-82
2021/08/28 02:56:04;;;;;;;5.70;5.15;;;;;;;;;;4920896;29;20209;-84
2021/08/28 02:58:32;;;;;;;6.13;5.55;;;;;;;;;;4921261;29;20194;-83
2021/08/28 03:01:01;;;;;;;6.03;5.53;;;;;;;;;;4920350;29;20692;-83
2021/08/28 03:03:28;;;;;;;6.50;6.00;;;;;;;;;;4920930;29;20214;-85
2021/08/28 03:05:57;;;;;;;7.07;6.47;;;;;;;;;;4920936;29;20225;-84
2021/08/28 03:08:27;;;;;;;6.10;5.60;;;;;;;;;;4921503;29;20197;-85
2021/08/28 03:10:56;;;;;;;6.70;6.10;;;;;;;;;;4922125;29;20226;-84
2021/08/28 03:13:23;;;;;;;7.20;6.60;;;;;;;;;;4921337;29;20191;-84
2021/08/28 03:15:52;;;;;;;6.97;6.28;;;;;;;;;;4920938;29;20211;-84
2021/08/28 03:18:22;;;;;;;6.90;6.20;;;;;;;;;;4921229;29;20191;-85
2021/08/28 03:20:53;;;;;;;6.70;5.88;;;;;;;;;;4920402;29;20238;-85
2021/08/28 03:23:29;;;;;;;6.75;6.15;;;;;;;;;;4921321;29;20211;-85
2021/08/28 03:25:57;;;;;;;5.32;4.93;;;;;;;;;;4921858;29;20182;-85
2021/08/28 03:28:25;;;;;;;6.10;5.50;;;;;;;;;;4921399;29;20246;-84
2021/08/28 03:30:53;;;;;;;5.97;5.47;;;;;;;;;;4921312;29;20222;-86
2021/08/28 03:33:21;;;;;;;5.57;5.07;;;;;;;;;;4921478;29;20191;-85
2021/08/28 03:35:51;;;;;;;6.75;6.15;;;;;;;;;;4921533;29;20185;-85
2021/08/28 03:38:18;;;;;;;5.78;4.78;;;;;;;;;;4921702;29;20197;-85
2021/08/28 03:40:47;;;;;;;7.45;5.45;;;;;;;;;;4922648;29;20242;-85
2021/08/28 03:43:15;;;;;;;6.57;5.97;;;;;;;;;;4922739;29;20210;-85
2021/08/28 03:45:44;;;;;;;6.05;5.55;;;;;;;;;;4922851;29;20669;-85
2021/08/28 03:48:13;;;;;;;6.35;5.85;;;;;;;;;;4923088;29;20197;-85
2021/08/28 03:50:40;;;;;;;5.90;5.40;;;;;;;;;;4922351;29;20218;-85
2021/08/28 03:53:08;;;;;;;5.70;4.95;;;;;;;;;;4923615;29;20206;-85
2021/08/28 03:55:35;;;;;;;5.72;5.22;;;;;;;;;;4923222;29;20660;-85
2021/08/28 03:58:04;;;;;;;5.00;4.60;;;;;;;;;;4923453;29;20216;-86
2021/08/28 04:00:32;;;;;;;5.05;4.65;;;;;;;;;;4922837;29;20696;-85
2021/08/28 04:02:59;;;;;;;4.53;4.20;;;;;;;;;;4922210;29;20210;-86
2021/08/28 04:05:28;;;;;;;4.20;3.90;;;;;;;;;;4922153;29;20266;-85
2021/08/28 04:07:57;;;;;;;4.30;4.00;;;;;;;;;;4922931;29;20197;-85
2021/08/28 04:10:25;;;;;;;4.82;4.43;;;;;;;;;;4922156;29;20233;-85
2021/08/28 04:12:52;;;;;;;5.15;4.65;;;;;;;;;;4923537;29;20205;-85
2021/08/28 04:15:21;;;;;;;5.18;4.78;;;;;;;;;;4923828;29;20194;-85
2021/08/28 04:17:49;;;;;;;4.55;4.20;;;;;;;;;;4921120;29;20573;-85
2021/08/28 04:20:16;;;;;;;4.72;4.32;;;;;;;;;;4902384;29;20694;-85
2021/08/28 04:22:43;;;;;;;5.22;4.72;;;;;;;;;;4904798;29;20195;-83
2021/08/28 04:25:12;;;;;;;4.80;4.40;;;;;;;;;;4889076;29;20612;-85
2021/08/28 04:27:40;;;;;;;4.97;4.57;;;;;;;;;;4883881;29;20196;-87
2021/08/28 04:30:09;;;;;;;4.13;3.83;;;;;;;;;;4883182;29;20224;-86
2021/08/28 04:32:38;;;;;;;4.57;4.22;;;;;;;;;;4883643;29;20218;-88
2021/08/28 04:35:06;;;;;;;4.38;4.00;;;;;;;;;;4882675;29;20675;-86
2021/08/28 04:37:34;;;;;;;4.70;4.30;;;;;;;;;;4882899;29;20709;-87
2021/08/28 04:40:01;;;;;;;4.63;4.22;;;;;;;;;;4883195;29;20231;-85
2021/08/28 04:42:29;;;;;;;4.28;3.90;;;;;;;;;;4883161;29;20212;-88
2021/08/28 04:44:56;;;;;;;3.70;3.40;;;;;;;;;;4882933;29;20222;-88
2021/08/28 04:47:24;;;;;;;4.35;3.95;;;;;;;;;;4881917;29;20208;-87
2021/08/28 04:49:52;;;;;;;3.75;3.45;;;;;;;;;;4882331;29;20198;-88
2021/08/28 04:52:20;;;;;;;3.35;3.05;;;;;;;;;;4881898;29;20562;-87
2021/08/28 04:54:47;;;;;;;4.18;3.78;;;;;;;;;;4881758;29;20669;-85
2021/08/28 04:57:15;;;;;;;3.05;2.85;;;;;;;;;;4881837;29;20222;-88
2021/08/28 04:59:42;;;;;;;3.10;2.90;;;;;;;;;;4882273;29;20202;-88
2021/08/28 05:02:10;;;;;;;2.70;2.50;;;;;;;;;;4883430;29;20215;-85
2021/08/28 05:04:37;;;;;;;2.70;2.50;;;;;;;;;;4893137;29;20718;-86
2021/08/28 05:07:06;;;;;;;2.05;1.95;;;;;;;;;;4903829;29;20207;-84
2021/08/28 05:09:33;;;;;;;2.55;2.35;;;;;;;;;;4905774;29;20197;-81
2021/08/28 05:12:01;;;;;;;2.95;2.75;;;;;;;;;;4905991;29;20209;-82
2021/08/28 05:14:28;;;;;;;2.10;2.00;;;;;;;;;;4906277;29;20199;-81
2021/08/28 05:16:55;;;;;;;2.40;2.20;;;;;;;;;;4906240;29;20223;-84
2021/08/28 05:19:23;;;;;;;1.73;1.63;;;;;;;;;;4905823;29;20188;-81
2021/08/28 05:21:50;;;;;;;1.85;1.50;;;;;;;;;;4905849;29;20257;-82
2021/08/28 05:24:19;;;;;;;2.13;1.92;;;;;;;;;;4905839;29;20227;-83
2021/08/28 05:26:46;;;;;;;1.52;1.42;;;;;;;;;;4903694;29;20208;-85
2021/08/28 05:29:14;;;;;;;1.73;1.63;;;;;;;;;;4889497;29;20207;-83
2021/08/28 05:31:44;;;;;;;1.55;1.45;;;;;;;;;;4882098;29;20234;-84
2021/08/28 05:34:11;;;;;;;1.75;1.65;;;;;;;;;;4881943;29;20223;-84
2021/08/28 05:36:38;;;;;;;1.27;1.27;;;;;;;;;;4881731;29;20200;-83
2021/08/28 05:39:06;;;;;;;1.65;1.50;;;;;;;;;;4881566;29;20207;-82
2021/08/28 05:41:37;;;;;;;1.30;1.20;;;;;;;;;;4881886;29;20227;-83
2021/08/28 05:44:05;;;;;;;1.42;1.40;;;;;;;;;;4881901;29;20222;-82
2021/08/28 05:46:33;;;;;;;1.70;1.60;;;;;;;;;;4881930;29;20192;-86
2021/08/28 05:49:00;;;;;;;1.30;1.23;;;;;;;;;;4899059;29;20207;-86
2021/08/28 05:51:28;;;;;;;1.15;1.10;;;;;;;;;;4900935;29;20231;-86
2021/08/28 05:53:55;;;;;;;2.00;1.88;;;;;;;;;;4900603;29;20213;-86
2021/08/28 05:56:23;;;;;;;1.75;1.65;;;;;;;;;;4900087;29;20215;-85
2021/08/28 05:58:52;;;;;;;1.33;1.27;;;;;;;;;;4900296;29;20195;-84
2021/08/28 06:01:19;;;;;;;1.90;1.80;;;;;;;;;;4900359;29;20234;-85
2021/08/28 06:03:46;;;;;;;2.08;1.95;;;;;;;;;;4900126;29;20282;-83
2021/08/28 06:06:14;;;;;;;1.83;1.73;;;;;;;;;;4899406;29;20241;-83
2021/08/28 06:08:41;;;;;;;2.05;1.80;;;;;;;;;;4900258;29;20209;-84
2021/08/28 06:11:09;;;;;;;1.77;1.67;;;;;;;;;;4899789;29;20245;-84
2021/08/28 06:13:36;;;;;;;2.10;2.00;;;;;;;;;;4899842;29;20210;-84
2021/08/28 06:16:06;;;;;;;2.33;1.88;;;;;;;;;;4899848;29;20204;-84
2021/08/28 06:18:33;;;;;;;1.83;1.73;;;;;;;;;;4899906;29;20207;-84
2021/08/28 06:21:04;;;;;;;1.65;1.55;;;;;;;;;;4899088;29;20239;-83
2021/08/28 06:23:34;;;;;;;1.77;1.67;;;;;;;;;;4899597;29;20192;-83
2021/08/28 06:26:01;;;;;;;2.60;2.40;;;;;;;;;;4897422;29;20211;-84
2021/08/28 06:28:29;;;;;;;1.60;1.50;;;;;;;;;;4899905;29;20689;-83
2021/08/28 06:30:57;;;;;;;1.55;1.45;;;;;;;;;;4900368;29;20238;-83
2021/08/28 06:33:25;;;;;;;1.58;1.48;;;;;;;;;;4901013;29;20237;-80
2021/08/28 06:35:53;;;;;;;1.50;1.40;;;;;;;;;;4892840;29;20656;-82
2021/08/28 06:38:20;;;;;;;1.60;1.50;;;;;;;;;;4881166;29;20203;-84
2021/08/28 06:40:48;;;;;;;1.80;1.70;;;;;;;;;;4880773;29;20224;-82
2021/08/28 06:43:15;;;;;;;1.40;1.30;;;;;;;;;;4880857;29;20208;-82
2021/08/28 06:45:43;;;;;;;1.30;1.20;;;;;;;;;;4880758;29;20223;-82
2021/08/28 06:48:11;;;;;;;1.23;1.13;;;;;;;;;;4880863;29;20184;-83
2021/08/28 06:50:39;;;;;;;1.30;1.20;;;;;;;;;;4880498;29;20219;-83
2021/08/28 06:53:07;;;;;;;1.67;1.48;;;;;;;;;;4888157;29;20196;-81
2021/08/28 06:55:34;;;;;;;1.42;1.33;;;;;;;;;;4899391;29;20202;-83
2021/08/28 06:58:02;;;;;;;2.17;1.98;;;;;;;;;;4899040;29;20194;-84
2021/08/28 07:00:29;;;;;;;1.65;1.50;;;;;;;;;;4898970;29;20728;-82
2021/08/28 07:02:57;;;;;;;1.00;1.00;;;;;;;;;;4898783;29;20221;-83
2021/08/28 07:05:24;;;;;;;1.30;1.20;;;;;;;;;;4898640;29;20234;-83
2021/08/28 07:07:57;;;;;;;1.58;1.48;;;;;;;;;;4898419;29;20206;-84
2021/08/28 07:10:24;;;;;;;1.80;1.70;;;;;;;;;;4898478;29;20215;-83
2021/08/28 07:12:52;;;;;;;1.83;1.73;;;;;;;;;;4898704;29;20211;-83
2021/08/28 07:15:19;;;;;;;1.60;1.50;;;;;;;;;;4898284;29;20210;-83
2021/08/28 07:17:46;;;;;;;1.80;1.70;;;;;;;;;;4898032;29;20732;-82
2021/08/28 07:20:15;;;;;;;1.98;1.88;;;;;;;;;;4897752;29;20227;-82
2021/08/28 07:22:43;;;;;;;2.08;1.95;;;;;;;;;;4898130;29;20222;-83
2021/08/28 07:25:12;;;;;;;1.45;1.35;;;;;;;;;;4897855;29;20237;-83
2021/08/28 07:27:40;;;;;;;2.00;1.83;;;;;;;;;;4898383;29;20203;-82
2021/08/28 07:30:09;;;;;;;1.52;1.42;;;;;;;;;;4898620;29;20257;-83
2021/08/28 07:32:37;;;;;;;2.08;1.88;;;;;;;;;;4898331;29;20701;-83
2021/08/28 07:35:06;;;;;;;2.10;2.00;;;;;;;;;;4898902;29;20210;-84
2021/08/28 07:37:33;;;;;;;1.90;1.77;;;;;;;;;;4898784;29;20694;-84
2021/08/28 07:40:01;;;;;;;1.30;1.30;;;;;;;;;;4898778;29;20238;-85
2021/08/28 07:42:29;;;;;;;1.70;1.60;;;;;;;;;;4899037;29;20214;-82
2021/08/28 07:44:57;;;;;;;1.75;1.65;;;;;;;;;;4898821;29;20213;-84
2021/08/28 07:47:25;;;;;;;1.52;1.40;;;;;;;;;;4898751;29;20206;-81
2021/08/28 07:49:52;;;;;;;1.60;1.50;;;;;;;;;;4899142;29;20187;-84
2021/08/28 07:52:20;;;;;;;2.00;1.90;;;;;;;;;;4899484;29;20400;-85
2021/08/28 07:54:47;;;;;;;1.30;1.20;;;;;;;;;;4898842;29;20217;-82
2021/08/28 07:57:15;;;;;;;1.35;1.25;;;;;;;;;;4899103;29;20203;-84
2021/08/28 07:59:51;;;;;;;1.10;1.10;;;;;;;;;;4896653;29;20259;-81
2021/08/28 08:02:19;;;;;;;1.10;1.10;;;;;;;;;;4898061;29;20217;-86
2021/08/28 08:04:46;;;;;;;1.30;1.20;;;;;;;;;;4897409;29;20206;-86
2021/08/28 08:07:13;;;;;;;1.40;1.30;;;;;;;;;;4899773;29;20226;-86
2021/08/28 08:09:41;;;;;;;1.40;1.30;;;;;;;;;;4899408;29;20237;-86
2021/08/28 08:12:08;;;;;;;1.00;1.00;;;;;;;;;;4899953;29;20203;-85
2021/08/28 08:14:36;;;;;;;1.45;1.35;;;;;;;;;;4899471;29;20209;-86
2021/08/28 08:17:05;;;;;;;2.20;1.15;;;;;;;;;;4899737;29;20199;-86
2021/08/28 08:19:32;;;;;;;1.40;1.30;;;;;;;;;;4899559;29;20498;-86
2021/08/28 08:22:00;;;;;;;1.40;1.40;;;;;;;;;;4899778;29;20231;-86
2021/08/28 08:24:27;;;;;;;1.70;1.60;;;;;;;;;;4899609;29;20211;-86
2021/08/28 08:26:55;;;;;;;1.70;1.52;;;;;;;;;;4899551;29;20227;-85
2021/08/28 08:29:22;;;;;;;1.70;1.55;;;;;;;;;;4899807;29;20195;-86
2021/08/28 08:31:53;;;;;;;1.30;1.20;;;;;;;;;;4900014;29;20316;-85
2021/08/28 08:34:22;;;;;;;1.35;1.30;;;;;;;;;;4900793;29;20266;-86
2021/08/28 08:36:50;;;;;;;1.10;1.10;;;;;;;;;;4899492;29;20211;-86
2021/08/28 08:39:18;;;;;;;1.17;1.10;;;;;;;;;;4899933;29;20210;-86
2021/08/28 08:41:47;;;;;;;0.90;0.90;;;;;;;;;;4900486;29;20233;-85
2021/08/28 08:44:16;;;;;;;0.73;0.73;;;;;;;;;;4900881;29;20206;-86
2021/08/28 08:46:44;;;;;;;0.82;0.82;;;;;;;;;;4899752;29;20227;-85
2021/08/28 08:49:14;;;;;;;1.05;1.05;;;;;;;;;;4900245;29;20246;-86
2021/08/28 08:51:43;;;;;;;0.73;0.73;;;;;;;;;;4899446;29;20301;-86
2021/08/28 08:54:11;;;;;;;1.05;1.05;;;;;;;;;;4899996;29;20219;-86
2021/08/28 08:56:38;;;;;;;0.93;0.90;;;;;;;;;;4900362;29;20663;-86
2021/08/28 08:59:06;;;;;;;0.93;0.93;;;;;;;;;;4900811;29;20207;-86
2021/08/28 09:01:33;;;;;;;1.30;1.20;;;;;;;;;;4898748;29;20231;-85
2021/08/28 09:04:01;;;;;;;1.25;1.25;;;;;;;;;;4897448;29;20199;-85
2021/08/28 09:06:28;;;;;;;1.27;1.27;;;;;;;;;;4900014;29;20237;-86
2021/08/28 09:08:57;;;;;;;1.08;1.08;;;;;;;;;;4899076;29;20213;-86
2021/08/28 09:11:30;;;;;;;1.08;1.08;;;;;;;;;;4899239;29;20290;-86
2021/08/28 09:14:19;;;;;;;1.45;1.02;;;;;;;;;;4897130;29;20203;-85
2021/08/28 09:16:48;;;;;;;0.85;0.85;;;;;;;;;;4897109;29;20211;-85
2021/08/28 09:19:16;;;;;;;1.15;1.15;;;;;;;;;;4897069;29;20210;-86
2021/08/28 09:21:44;;;;;;;0.93;0.93;;;;;;;;;;4896503;29;20239;-85
2021/08/28 09:24:14;;;;;;;1.10;1.10;;;;;;;;;;4897067;29;20203;-85
2021/08/28 09:26:44;;;;;;;1.30;1.20;;;;;;;;;;4896792;29;20234;-85
2021/08/28 09:29:14;;;;;;;1.10;1.10;;;;;;;;;;4896835;29;20642;-85
2021/08/28 09:31:45;;;;;;;1.20;1.20;;;;;;;;;;4896632;29;20223;-86
2021/08/28 09:34:24;;;;;;;0.93;0.93;;;;;;;;;;4897032;29;20217;-85
2021/08/28 09:36:54;;;;;;;1.10;1.10;;;;;;;;;;4896932;29;20211;-86
2021/08/28 09:39:38;;;;;;;0.90;0.90;;;;;;;;;;4896947;29;20203;-85
2021/08/28 09:42:06;;;;;;;1.00;1.00;;;;;;;;;;4896901;29;20286;-85
2021/08/28 09:44:38;;;;;;;1.05;1.00;;;;;;;;;;4897619;29;20296;-85
2021/08/28 09:47:17;;;;;;;0.70;0.70;;;;;;;;;;4897508;29;20243;-85
2021/08/28 09:49:46;;;;;;;1.00;1.00;;;;;;;;;;4900949;29;20225;-85
2021/08/28 09:52:16;;;;;;;0.98;0.98;;;;;;;;;;4900900;29;20217;-85
2021/08/28 09:54:45;;;;;;;0.82;0.82;;;;;;;;;;4900694;29;20576;-85
2021/08/28 09:57:13;;;;;;;1.15;1.15;;;;;;;;;;4900661;29;20203;-85
2021/08/28 09:59:40;;;;;;;0.75;0.75;;;;;;;;;;4900751;29;20608;-86
2021/08/28 10:02:11;;;;;;;0.85;0.85;;;;;;;;;;4900279;29;20207;-85
2021/08/28 10:04:51;;;;;;;0.80;0.80;;;;;;;;;;4900118;29;20640;-85
2021/08/28 10:07:24;;;;;;;1.20;1.20;;;;;;;;;;4899763;29;20704;-85
2021/08/28 10:09:56;;;;;;;1.20;0.93;;;;;;;;;;4899998;29;20207;-85
2021/08/28 10:12:24;;;;;;;1.00;1.00;;;;;;;;;;4899829;29;20207;-85
2021/08/28 10:14:55;;;;;;;0.80;0.80;;;;;;;;;;4899866;29;20207;-85
2021/08/28 10:17:25;;;;;;;0.80;0.80;;;;;;;;;;4899985;29;20199;-85
2021/08/28 10:19:55;;;;;;;1.38;1.27;;;;;;;;;;4900105;29;20247;-85
2021/08/28 10:22:25;;;;;;;0.63;0.63;;;;;;;;;;4899966;29;20195;-85
2021/08/28 10:24:58;;;;;;;0.52;0.52;;;;;;;;;;4921947;23;20234;-86
2021/08/28 10:27:27;;;;;;;0.88;0.88;;;;;;;;;;4902034;29;20921;-84
2021/08/28 10:29:55;;;;;;;0.80;0.80;;;;;;;;;;4902621;29;20669;-83
2021/08/28 10:32:24;;;;;;;0.77;0.77;;;;;;;;;;4901610;29;20716;-84
2021/08/28 10:34:52;;;;;;;0.55;0.55;;;;;;;;;;4900797;29;20599;-84
2021/08/28 10:37:21;;;;;;;0.68;0.68;;;;;;;;;;4900869;29;20277;-83
2021/08/28 10:39:49;;;;;;;0.73;0.73;;;;;;;;;;4902052;29;20215;-83
2021/08/28 10:42:20;;;;;;;0.43;0.43;;;;;;;;;;4901269;29;20279;-84
2021/08/28 10:44:51;;;;;;;0.70;0.70;;;;;;;;;;4901185;29;20230;-84
2021/08/28 10:47:23;;;;;;;0.82;0.82;;;;;;;;;;4900812;29;20274;-83
2021/08/28 10:49:52;;;;;;;0.47;0.47;;;;;;;;;;4901714;29;20207;-84
2021/08/28 10:52:21;;;;;;;0.45;0.45;;;;;;;;;;4900757;29;20207;-84
2021/08/28 10:54:55;;;;;;;0.60;0.60;;;;;;;;;;4901821;29;20225;-83
2021/08/28 10:57:28;;;;;;;0.60;0.60;;;;;;;;;;4900676;29;20213;-84
2021/08/28 11:00:05;;;;;;;0.55;0.55;;;;;;;;;;4901017;29;20244;-84
2021/08/28 11:02:50;;;;;;;0.68;0.68;;;;;;;;;;4900296;29;20695;-84
2021/08/28 11:05:20;;;;;;;0.60;0.60;;;;;;;;;;4903605;29;20229;-85
2021/08/28 11:07:48;;;;;;;0.55;0.55;;;;;;;;;;4900197;29;20237;-83
2021/08/28 11:10:18;;;;;;;0.70;0.70;;;;;;;;;;4900861;29;20214;-84
2021/08/28 11:12:53;;;;;;;0.60;0.60;;;;;;;;;;4900124;29;20297;-84
2021/08/28 11:15:44;;;;;;;0.55;0.55;;;;;;;;;;4898132;29;20227;-83
2021/08/28 11:18:15;;;;;;;0.70;0.70;;;;;;;;;;4898770;29;20621;-84
2021/08/28 11:20:45;;;;;;;0.57;0.57;;;;;;;;;;4903779;29;20620;-84
2021/08/28 11:23:14;;;;;;;0.57;0.57;;;;;;;;;;4903570;29;20203;-83
2021/08/28 11:25:44;;;;;;;0.57;0.57;;;;;;;;;;4902757;29;20243;-84
2021/08/28 11:28:14;;;;;;;0.50;0.50;;;;;;;;;;4903389;29;20245;-83
2021/08/28 11:30:54;;;;;;;0.30;0.30;;;;;;;;;;4903578;29;20213;-84
2021/08/28 11:33:26;;;;;;;0.70;0.70;;;;;;;;;;4903293;29;20210;-83
2021/08/28 11:35:57;;;;;;;0.50;0.50;;;;;;;;;;4901108;29;20245;-82
2021/08/28 11:38:39;;;;;;;0.55;0.55;;;;;;;;;;4900099;29;20571;-83
2021/08/28 11:41:10;;;;;;;0.63;0.63;;;;;;;;;;4900212;29;20210;-84
2021/08/28 11:43:40;;;;;;;0.70;0.70;;;;;;;;;;4900640;29;20730;-83
2021/08/28 11:46:10;;;;;;;0.70;0.70;;;;;;;;;;4901149;29;20295;-83
2021/08/28 11:48:40;;;;;;;0.70;0.70;;;;;;;;;;4899443;29;20215;-82
2021/08/28 11:51:11;;;;;;;0.50;0.50;;;;;;;;;;4901929;29;20274;-83
2021/08/28 11:53:44;;;;;;;1.52;0.60;;;;;;;;;;4898794;29;20201;-82
2021/08/28 11:56:15;;;;;;;0.68;0.68;;;;;;;;;;4898989;29;20235;-82
2021/08/28 11:58:56;;;;;;;0.50;0.50;;;;;;;;;;4898541;29;20214;-82
2021/08/28 12:01:30;;;;;;;0.70;0.70;;;;;;;;;;4899825;29;20213;-83
2021/08/28 12:03:59;;;;;;;0.68;0.68;;;;;;;;;;4899492;29;20659;-83
2021/08/28 12:06:29;;;;;;;0.57;0.57;;;;;;;;;;4899957;29;20209;-83
2021/08/28 12:08:56;;;;;;;0.70;0.70;;;;;;;;;;4898307;29;20215;-83
2021/08/28 12:11:25;;;;;;;0.63;0.63;;;;;;;;;;4898322;29;20634;-83
2021/08/28 12:13:56;;;;;;;0.70;0.70;;;;;;;;;;4899669;29;20191;-83
2021/08/28 12:16:27;;;;;;;0.60;0.60;;;;;;;;;;4899246;29;20207;-82
2021/08/28 12:19:04;;;;;;;0.50;0.50;;;;;;;;;;4900168;29;20194;-83
2021/08/28 12:21:35;;;;;;;0.70;0.70;;;;;;;;;;4899992;29;20634;-84
2021/08/28 12:24:15;;;;;;;0.50;0.50;;;;;;;;;;4899106;29;20190;-85
2021/08/28 12:26:44;;;;;;;0.70;0.70;;;;;;;;;;4899422;29;20184;-84
2021/08/28 12:29:14;;;;;;;0.77;0.77;;;;;;;;;;4899401;29;20214;-82
2021/08/28 12:31:41;;;;;;;0.50;0.50;;;;;;;;;;4899114;29;20297;-82
2021/08/28 12:34:20;;;;;;;0.60;0.60;;;;;;;;;;4899171;29;20203;-83
2021/08/28 12:36:49;;;;;;;0.70;0.70;;;;;;;;;;4898667;29;20211;-82
2021/08/28 12:39:17;;;;;;;0.95;0.60;;;;;;;;;;4898937;29;20188;-83
2021/08/28 12:41:45;;;;;;;0.82;0.82;;;;;;;;;;4899134;29;20214;-83
2021/08/28 12:44:16;;;;;;;0.80;0.80;;;;;;;;;;4897472;29;20203;-83
2021/08/28 12:46:48;;;;;;;0.60;0.60;;;;;;;;;;4899262;29;20677;-82
2021/08/28 12:49:21;;;;;;;0.70;0.70;;;;;;;;;;4898995;29;20219;-82
2021/08/28 12:52:02;;;;;;;0.50;0.50;;;;;;;;;;4898760;29;20203;-82
2021/08/28 12:54:32;;;;;;;0.50;0.50;;;;;;;;;;4898869;29;20286;-83
2021/08/28 12:57:05;;;;;;;0.50;0.50;;;;;;;;;;4899147;29;20666;-81
2021/08/28 12:59:42;;;;;;;0.60;0.60;;;;;;;;;;4898974;29;20199;-82
2021/08/28 13:02:17;;;;;;;0.60;0.60;;;;;;;;;;4899470;29;20396;-82
2021/08/28 13:04:44;;;;;;;0.65;0.65;;;;;;;;;;4899389;29;20218;-81
2021/08/28 13:07:21;;;;;;;0.50;0.50;;;;;;;;;;4899142;29;20191;-82
2021/08/28 13:09:58;;;;;;;0.55;0.55;;;;;;;;;;4898899;29;20250;-82
2021/08/28 13:13:02;;;;;;;0.68;0.68;;;;;;;;;;4898377;29;20213;-82
2021/08/28 13:15:43;;;;;;;0.50;0.50;;;;;;;;;;4840797;29;20229;-82
2021/08/28 13:18:17;;;;;;;0.80;0.80;;;;;;;;;;4840736;29;20220;-82
2021/08/28 13:20:48;;;;;;;0.85;0.73;;;;;;;;;;4875093;29;20230;-82
2021/08/28 13:23:18;;;;;;;0.52;0.52;;;;;;;;;;4900562;29;20195;-83
2021/08/28 13:25:47;;;;;;;0.40;0.40;;;;;;;;;;4902751;29;20249;-83
2021/08/28 13:28:22;;;;;;;0.50;0.50;;;;;;;;;;4902413;29;20195;-82
2021/08/28 13:30:54;;;;;;;0.68;0.68;;;;;;;;;;4902279;29;20537;-82
2021/08/28 13:33:28;;;;;;;0.80;0.80;;;;;;;;;;4902413;29;20188;-82
2021/08/28 13:36:01;;;;;;;0.60;0.60;;;;;;;;;;4901884;29;20283;-84
2021/08/28 13:38:32;;;;;;;0.70;0.70;;;;;;;;;;4902644;29;20235;-83
2021/08/28 13:41:00;;;;;;;0.70;0.70;;;;;;;;;;4902735;29;20190;-83
2021/08/28 13:43:29;;;;;;;0.60;0.60;;;;;;;;;;4901340;29;20211;-82
2021/08/28 13:46:00;;;;;;;1.38;1.00;;;;;;;;;;4902254;29;20219;-83
2021/08/28 13:48:27;;;;;;;0.85;0.85;;;;;;;;;;4901911;29;20202;-82
2021/08/28 13:50:55;;;;;;;0.60;0.60;;;;;;;;;;4902047;29;20658;-82
2021/08/28 13:53:22;;;;;;;0.68;0.68;;;;;;;;;;4898075;29;20204;-81
2021/08/28 13:55:52;;;;;;;0.80;0.80;;;;;;;;;;4882462;29;20741;-82
2021/08/28 13:58:20;;;;;;;0.70;0.70;;;;;;;;;;4882491;29;20199;-82
2021/08/28 14:00:47;;;;;;;0.60;0.60;;;;;;;;;;4882296;29;20235;-82
2021/08/28 14:03:16;;;;;;;1.98;0.80;;;;;;;;;;4885673;29;20199;-83
2021/08/28 14:05:44;;;;;;;1.38;1.27;;;;;;;;;;4902079;29;20731;-82
2021/08/28 14:08:11;;;;;;;0.70;0.70;;;;;;;;;;4901964;29;20242;-83
2021/08/28 14:10:39;;;;;;;0.60;0.60;;;;;;;;;;4901658;29;20231;-83
2021/08/28 14:13:07;;;;;;;0.70;0.70;;;;;;;;;;4899920;29;20188;-82
2021/08/28 14:15:34;;;;;;;0.90;0.90;;;;;;;;;;4882880;29;20227;-83
2021/08/28 14:18:02;;;;;;;0.60;0.60;;;;;;;;;;4883167;29;20215;-81
2021/08/28 14:20:30;;;;;;;0.90;0.90;;;;;;;;;;4882888;29;20640;-82
2021/08/28 14:22:58;;;;;;;0.90;0.90;;;;;;;;;;4883736;29;20208;-81
2021/08/28 14:25:25;;;;;;;1.00;1.00;;;;;;;;;;4901580;29;20242;-83
2021/08/28 14:27:53;;;;;;;1.00;1.00;;;;;;;;;;4902400;29;20192;-82
2021/08/28 14:30:20;;;;;;;0.93;0.93;;;;;;;;;;4901863;29;20770;-84
2021/08/28 14:32:47;;;;;;;0.93;0.93;;;;;;;;;;4903331;29;20579;-85
2021/08/28 14:35:15;;;;;;;1.00;1.00;;;;;;;;;;4902702;29;20227;-82
2021/08/28 14:37:44;;;;;;;0.93;0.93;;;;;;;;;;4900782;29;20297;-82
2021/08/28 14:40:12;;;;;;;0.90;0.90;;;;;;;;;;4900639;29;20290;-82
2021/08/28 14:42:40;;;;;;;1.02;1.02;;;;;;;;;;4901345;29;20678;-82
2021/08/28 14:45:10;;;;;;;0.70;0.70;;;;;;;;;;4900838;29;20291;-81
2021/08/28 14:47:38;;;;;;;0.90;0.90;;;;;;;;;;4900620;29;20195;-81
2021/08/28 14:50:07;;;;;;;1.30;1.20;;;;;;;;;;4900697;29;20223;-82
2021/08/28 14:52:35;;;;;;;0.95;0.95;;;;;;;;;;4901435;29;20180;-81
2021/08/28 14:55:05;;;;;;;1.50;1.40;;;;;;;;;;4901345;29;20227;-81
2021/08/28 14:57:32;;;;;;;1.13;1.02;;;;;;;;;;4901571;29;20218;-82